sensor_id;sensor_type;location;lat;lon;timestamp;P1;durP1;ratioP1;P2;durP2;ratioP2
20468;SDS011;10393;52.460;13.322;2023-06-22T00:00:23;8.55;;;6.20;;
20468;SDS011;10393;52.460;13.322;2023-06-22T00:02:04;9.23;;;5.90;;
20468;SDS011;10393;52.460;13.322;2023-06-22T00:03:45;6.25;;;5.65;;
20468;SDS011;10393;52.460;13.322;2023-06-22T00:05:27;9.25;;;5.43;;
20468;SDS011;10393;52.460;13.322;2023-06-22T00:07:08;10.65;;;5.95;;
20468;SDS011;10393;52.460;13.322;2023-06-22T00:08:49;7.47;;;5.50;;
20468;SDS011;10393;52.460;13.322;2023-06-22T00:10:30;9.02;;;6.22;;
20468;SDS011;10393;52.460;13.322;2023-06-22T00:12:12;6.95;;;4.90;;
20468;SDS011;10393;52.460;13.322;2023-06-22T00:13:53;5.93;;;5.40;;
20468;SDS011;10393;52.460;13.322;2023-06-22T00:15:34;5.90;;;4.90;;
20468;SDS011;10393;52.460;13.322;2023-06-22T00:17:16;8.13;;;4.78;;
20468;SDS011;10393;52.460;13.322;2023-06-22T00:18:57;5.57;;;4.90;;
20468;SDS011;10393;52.460;13.322;2023-06-22T00:20:41;5.38;;;4.65;;
20468;SDS011;10393;52.460;13.322;2023-06-22T00:22:22;5.28;;;4.78;;
20468;SDS011;10393;52.460;13.322;2023-06-22T00:24:08;5.13;;;4.50;;
20468;SDS011;10393;52.460;13.322;2023-06-22T00:25:49;7.00;;;4.88;;
20468;SDS011;10393;52.460;13.322;2023-06-22T00:27:31;12.40;;;5.13;;
20468;SDS011;10393;52.460;13.322;2023-06-22T00:29:12;5.57;;;4.43;;
20468;SDS011;10393;52.460;13.322;2023-06-22T00:30:54;6.10;;;4.80;;
20468;SDS011;10393;52.460;13.322;2023-06-22T00:32:35;6.75;;;4.93;;
20468;SDS011;10393;52.460;13.322;2023-06-22T00:34:16;6.03;;;5.20;;
20468;SDS011;10393;52.460;13.322;2023-06-22T00:35:57;5.68;;;5.18;;
20468;SDS011;10393;52.460;13.322;2023-06-22T00:37:39;5.43;;;4.88;;
20468;SDS011;10393;52.460;13.322;2023-06-22T00:39:22;6.90;;;5.25;;
20468;SDS011;10393;52.460;13.322;2023-06-22T00:41:05;10.55;;;6.00;;
20468;SDS011;10393;52.460;13.322;2023-06-22T00:42:46;6.90;;;4.93;;
20468;SDS011;10393;52.460;13.322;2023-06-22T00:44:28;6.55;;;4.97;;
20468;SDS011;10393;52.460;13.322;2023-06-22T00:46:09;7.85;;;5.72;;
20468;SDS011;10393;52.460;13.322;2023-06-22T00:47:53;5.65;;;4.95;;
20468;SDS011;10393;52.460;13.322;2023-06-22T00:49:35;5.80;;;5.18;;
20468;SDS011;10393;52.460;13.322;2023-06-22T00:51:16;8.90;;;5.68;;
20468;SDS011;10393;52.460;13.322;2023-06-22T00:53:07;5.65;;;5.07;;
20468;SDS011;10393;52.460;13.322;2023-06-22T00:54:49;7.35;;;5.57;;
20468;SDS011;10393;52.460;13.322;2023-06-22T00:56:31;5.18;;;4.25;;
20468;SDS011;10393;52.460;13.322;2023-06-22T00:58:15;7.65;;;5.38;;
20468;SDS011;10393;52.460;13.322;2023-06-22T00:59:57;6.13;;;4.97;;
20468;SDS011;10393;52.460;13.322;2023-06-22T01:01:38;7.47;;;5.25;;
20468;SDS011;10393;52.460;13.322;2023-06-22T01:03:21;9.77;;;6.35;;
20468;SDS011;10393;52.460;13.322;2023-06-22T01:05:02;6.00;;;5.40;;
20468;SDS011;10393;52.460;13.322;2023-06-22T01:06:45;11.48;;;5.25;;
20468;SDS011;10393;52.460;13.322;2023-06-22T01:12:44;7.75;;;5.32;;
20468;SDS011;10393;52.460;13.322;2023-06-22T01:14:28;8.32;;;5.25;;
20468;SDS011;10393;52.460;13.322;2023-06-22T01:17:52;12.57;;;6.70;;
20468;SDS011;10393;52.460;13.322;2023-06-22T01:19:35;8.02;;;5.47;;
20468;SDS011;10393;52.460;13.322;2023-06-22T01:21:19;8.43;;;6.10;;
20468;SDS011;10393;52.460;13.322;2023-06-22T01:23:11;6.50;;;5.80;;
20468;SDS011;10393;52.460;13.322;2023-06-22T01:27:15;7.70;;;5.63;;
20468;SDS011;10393;52.460;13.322;2023-06-22T01:29:01;9.65;;;5.72;;
20468;SDS011;10393;52.460;13.322;2023-06-22T01:30:45;7.78;;;5.75;;
20468;SDS011;10393;52.460;13.322;2023-06-22T01:32:30;8.18;;;5.18;;
20468;SDS011;10393;52.460;13.322;2023-06-22T01:34:12;7.90;;;6.22;;
20468;SDS011;10393;52.460;13.322;2023-06-22T01:35:54;9.48;;;6.07;;
20468;SDS011;10393;52.460;13.322;2023-06-22T01:37:35;8.00;;;5.28;;
20468;SDS011;10393;52.460;13.322;2023-06-22T01:39:17;9.63;;;6.90;;
20468;SDS011;10393;52.460;13.322;2023-06-22T01:40:58;9.02;;;6.95;;
20468;SDS011;10393;52.460;13.322;2023-06-22T01:42:40;9.13;;;6.32;;
20468;SDS011;10393;52.460;13.322;2023-06-22T01:44:23;10.10;;;7.05;;
20468;SDS011;10393;52.460;13.322;2023-06-22T01:46:05;4.95;;;3.85;;
20468;SDS011;10393;52.460;13.322;2023-06-22T01:47:47;5.90;;;4.72;;
20468;SDS011;10393;52.460;13.322;2023-06-22T01:49:28;11.30;;;7.05;;
20468;SDS011;10393;52.460;13.322;2023-06-22T01:51:11;8.55;;;5.78;;
20468;SDS011;10393;52.460;13.322;2023-06-22T01:52:53;8.95;;;7.00;;
20468;SDS011;10393;52.460;13.322;2023-06-22T01:54:34;12.77;;;6.95;;
20468;SDS011;10393;52.460;13.322;2023-06-22T01:56:16;12.18;;;8.80;;
20468;SDS011;10393;52.460;13.322;2023-06-22T01:57:58;13.93;;;6.82;;
20468;SDS011;10393;52.460;13.322;2023-06-22T01:59:50;11.30;;;8.02;;
20468;SDS011;10393;52.460;13.322;2023-06-22T02:01:35;9.40;;;5.65;;
20468;SDS011;10393;52.460;13.322;2023-06-22T02:03:25;10.75;;;7.18;;
20468;SDS011;10393;52.460;13.322;2023-06-22T02:05:08;9.48;;;7.50;;
20468;SDS011;10393;52.460;13.322;2023-06-22T02:06:55;13.82;;;8.18;;
20468;SDS011;10393;52.460;13.322;2023-06-22T02:08:41;8.45;;;6.20;;
20468;SDS011;10393;52.460;13.322;2023-06-22T02:10:22;11.93;;;7.80;;
20468;SDS011;10393;52.460;13.322;2023-06-22T02:12:04;10.02;;;6.50;;
20468;SDS011;10393;52.460;13.322;2023-06-22T02:13:47;11.18;;;7.03;;
20468;SDS011;10393;52.460;13.322;2023-06-22T02:15:29;11.52;;;7.75;;
20468;SDS011;10393;52.460;13.322;2023-06-22T02:17:10;15.55;;;8.65;;
20468;SDS011;10393;52.460;13.322;2023-06-22T02:18:52;12.88;;;8.70;;
20468;SDS011;10393;52.460;13.322;2023-06-22T02:20:35;9.95;;;8.30;;
20468;SDS011;10393;52.460;13.322;2023-06-22T02:22:17;12.85;;;8.60;;
20468;SDS011;10393;52.460;13.322;2023-06-22T02:23:58;11.38;;;8.07;;
20468;SDS011;10393;52.460;13.322;2023-06-22T02:25:39;14.35;;;8.80;;
20468;SDS011;10393;52.460;13.322;2023-06-22T02:27:24;14.95;;;8.25;;
20468;SDS011;10393;52.460;13.322;2023-06-22T02:29:05;12.88;;;8.85;;
20468;SDS011;10393;52.460;13.322;2023-06-22T02:30:46;10.65;;;8.00;;
20468;SDS011;10393;52.460;13.322;2023-06-22T02:32:27;9.85;;;7.97;;
20468;SDS011;10393;52.460;13.322;2023-06-22T02:34:09;10.93;;;8.10;;
20468;SDS011;10393;52.460;13.322;2023-06-22T02:35:50;12.93;;;8.85;;
20468;SDS011;10393;52.460;13.322;2023-06-22T02:37:31;12.70;;;7.65;;
20468;SDS011;10393;52.460;13.322;2023-06-22T02:39:12;16.88;;;8.93;;
20468;SDS011;10393;52.460;13.322;2023-06-22T02:40:54;12.18;;;7.55;;
20468;SDS011;10393;52.460;13.322;2023-06-22T02:42:35;14.18;;;9.18;;
20468;SDS011;10393;52.460;13.322;2023-06-22T02:44:16;12.10;;;8.20;;
20468;SDS011;10393;52.460;13.322;2023-06-22T02:45:57;15.98;;;8.85;;
20468;SDS011;10393;52.460;13.322;2023-06-22T02:47:39;16.85;;;9.38;;
20468;SDS011;10393;52.460;13.322;2023-06-22T02:49:20;13.15;;;9.52;;
20468;SDS011;10393;52.460;13.322;2023-06-22T02:51:01;11.90;;;9.30;;
20468;SDS011;10393;52.460;13.322;2023-06-22T02:52:42;13.93;;;9.10;;
20468;SDS011;10393;52.460;13.322;2023-06-22T02:54:24;10.63;;;7.75;;
20468;SDS011;10393;52.460;13.322;2023-06-22T02:56:07;15.32;;;9.38;;
20468;SDS011;10393;52.460;13.322;2023-06-22T02:57:51;14.10;;;9.43;;
20468;SDS011;10393;52.460;13.322;2023-06-22T02:59:34;12.45;;;9.07;;
20468;SDS011;10393;52.460;13.322;2023-06-22T03:01:22;15.02;;;8.60;;
20468;SDS011;10393;52.460;13.322;2023-06-22T03:03:04;6.78;;;3.95;;
20468;SDS011;10393;52.460;13.322;2023-06-22T03:04:45;14.65;;;8.45;;
20468;SDS011;10393;52.460;13.322;2023-06-22T03:06:29;14.38;;;9.30;;
20468;SDS011;10393;52.460;13.322;2023-06-22T03:08:10;13.45;;;8.98;;
20468;SDS011;10393;52.460;13.322;2023-06-22T03:09:51;13.57;;;8.77;;
20468;SDS011;10393;52.460;13.322;2023-06-22T03:11:33;13.55;;;8.82;;
20468;SDS011;10393;52.460;13.322;2023-06-22T03:13:14;13.23;;;8.90;;
20468;SDS011;10393;52.460;13.322;2023-06-22T03:14:56;12.88;;;8.82;;
20468;SDS011;10393;52.460;13.322;2023-06-22T03:16:38;14.88;;;8.85;;
20468;SDS011;10393;52.460;13.322;2023-06-22T03:18:21;14.05;;;9.95;;
20468;SDS011;10393;52.460;13.322;2023-06-22T03:20:02;13.82;;;9.40;;
20468;SDS011;10393;52.460;13.322;2023-06-22T03:21:49;10.05;;;8.05;;
20468;SDS011;10393;52.460;13.322;2023-06-22T03:23:30;12.35;;;8.80;;
20468;SDS011;10393;52.460;13.322;2023-06-22T03:25:11;11.75;;;8.63;;
20468;SDS011;10393;52.460;13.322;2023-06-22T03:26:55;11.75;;;8.38;;
20468;SDS011;10393;52.460;13.322;2023-06-22T03:28:37;12.20;;;8.35;;
20468;SDS011;10393;52.460;13.322;2023-06-22T03:30:18;14.20;;;8.50;;
20468;SDS011;10393;52.460;13.322;2023-06-22T03:31:59;12.82;;;9.30;;
20468;SDS011;10393;52.460;13.322;2023-06-22T03:33:41;10.13;;;8.63;;
20468;SDS011;10393;52.460;13.322;2023-06-22T03:35:22;12.07;;;8.82;;
20468;SDS011;10393;52.460;13.322;2023-06-22T03:37:03;12.25;;;8.75;;
20468;SDS011;10393;52.460;13.322;2023-06-22T03:38:45;13.10;;;8.48;;
20468;SDS011;10393;52.460;13.322;2023-06-22T03:40:26;11.30;;;8.57;;
20468;SDS011;10393;52.460;13.322;2023-06-22T03:42:08;11.95;;;8.07;;
20468;SDS011;10393;52.460;13.322;2023-06-22T03:43:49;12.23;;;8.80;;
20468;SDS011;10393;52.460;13.322;2023-06-22T03:45:30;10.73;;;8.15;;
20468;SDS011;10393;52.460;13.322;2023-06-22T03:47:12;12.20;;;7.15;;
20468;SDS011;10393;52.460;13.322;2023-06-22T03:48:53;10.82;;;8.07;;
20468;SDS011;10393;52.460;13.322;2023-06-22T03:50:34;15.63;;;8.45;;
20468;SDS011;10393;52.460;13.322;2023-06-22T03:52:15;10.60;;;7.93;;
20468;SDS011;10393;52.460;13.322;2023-06-22T03:53:56;9.73;;;7.35;;
20468;SDS011;10393;52.460;13.322;2023-06-22T03:55:40;13.05;;;7.43;;
20468;SDS011;10393;52.460;13.322;2023-06-22T03:57:21;11.02;;;7.55;;
20468;SDS011;10393;52.460;13.322;2023-06-22T03:59:02;14.68;;;8.35;;
20468;SDS011;10393;52.460;13.322;2023-06-22T04:00:47;12.25;;;7.20;;
20468;SDS011;10393;52.460;13.322;2023-06-22T04:02:28;8.65;;;6.00;;
20468;SDS011;10393;52.460;13.322;2023-06-22T04:04:09;12.70;;;6.47;;
20468;SDS011;10393;52.460;13.322;2023-06-22T04:05:50;6.90;;;5.20;;
20468;SDS011;10393;52.460;13.322;2023-06-22T04:07:31;9.18;;;7.18;;
20468;SDS011;10393;52.460;13.322;2023-06-22T04:09:12;8.93;;;5.97;;
20468;SDS011;10393;52.460;13.322;2023-06-22T04:10:54;8.80;;;6.35;;
20468;SDS011;10393;52.460;13.322;2023-06-22T04:12:35;16.35;;;6.85;;
20468;SDS011;10393;52.460;13.322;2023-06-22T04:14:16;9.43;;;7.05;;
20468;SDS011;10393;52.460;13.322;2023-06-22T04:15:57;12.57;;;5.85;;
20468;SDS011;10393;52.460;13.322;2023-06-22T04:17:41;11.10;;;6.82;;
20468;SDS011;10393;52.460;13.322;2023-06-22T04:19:22;10.55;;;6.60;;
20468;SDS011;10393;52.460;13.322;2023-06-22T04:21:04;13.75;;;7.50;;
20468;SDS011;10393;52.460;13.322;2023-06-22T04:22:45;8.75;;;7.13;;
20468;SDS011;10393;52.460;13.322;2023-06-22T04:24:26;8.82;;;5.35;;
20468;SDS011;10393;52.460;13.322;2023-06-22T04:26:08;8.07;;;5.38;;
20468;SDS011;10393;52.460;13.322;2023-06-22T04:27:49;11.35;;;5.85;;
20468;SDS011;10393;52.460;13.322;2023-06-22T04:29:31;10.90;;;5.53;;
20468;SDS011;10393;52.460;13.322;2023-06-22T04:31:12;7.90;;;5.47;;
20468;SDS011;10393;52.460;13.322;2023-06-22T04:32:53;8.40;;;5.60;;
20468;SDS011;10393;52.460;13.322;2023-06-22T04:34:37;7.50;;;6.00;;
20468;SDS011;10393;52.460;13.322;2023-06-22T04:36:18;10.50;;;6.05;;
20468;SDS011;10393;52.460;13.322;2023-06-22T04:38:01;10.05;;;5.75;;
20468;SDS011;10393;52.460;13.322;2023-06-22T04:39:43;7.70;;;5.65;;
20468;SDS011;10393;52.460;13.322;2023-06-22T04:41:24;6.57;;;5.38;;
20468;SDS011;10393;52.460;13.322;2023-06-22T04:43:05;8.80;;;5.90;;
20468;SDS011;10393;52.460;13.322;2023-06-22T04:44:47;4.28;;;3.38;;
20468;SDS011;10393;52.460;13.322;2023-06-22T04:46:28;13.52;;;5.45;;
20468;SDS011;10393;52.460;13.322;2023-06-22T04:48:09;9.23;;;5.80;;
20468;SDS011;10393;52.460;13.322;2023-06-22T04:49:55;7.40;;;5.93;;
20468;SDS011;10393;52.460;13.322;2023-06-22T04:51:38;8.77;;;5.10;;
20468;SDS011;10393;52.460;13.322;2023-06-22T04:53:19;6.30;;;4.75;;
20468;SDS011;10393;52.460;13.322;2023-06-22T04:55:00;7.50;;;5.60;;
20468;SDS011;10393;52.460;13.322;2023-06-22T04:56:41;7.85;;;5.35;;
20468;SDS011;10393;52.460;13.322;2023-06-22T04:58:22;6.70;;;5.45;;
20468;SDS011;10393;52.460;13.322;2023-06-22T05:00:07;5.88;;;5.30;;
20468;SDS011;10393;52.460;13.322;2023-06-22T05:01:52;8.48;;;6.35;;
20468;SDS011;10393;52.460;13.322;2023-06-22T05:03:33;6.20;;;5.38;;
20468;SDS011;10393;52.460;13.322;2023-06-22T05:05:16;8.40;;;5.85;;
20468;SDS011;10393;52.460;13.322;2023-06-22T05:07:01;6.43;;;5.10;;
20468;SDS011;10393;52.460;13.322;2023-06-22T05:08:43;5.88;;;4.03;;
20468;SDS011;10393;52.460;13.322;2023-06-22T05:10:24;8.23;;;5.63;;
20468;SDS011;10393;52.460;13.322;2023-06-22T05:12:05;7.47;;;4.70;;
20468;SDS011;10393;52.460;13.322;2023-06-22T05:13:47;7.25;;;5.30;;
20468;SDS011;10393;52.460;13.322;2023-06-22T05:15:29;8.05;;;5.45;;
20468;SDS011;10393;52.460;13.322;2023-06-22T05:17:13;7.72;;;5.50;;
20468;SDS011;10393;52.460;13.322;2023-06-22T05:18:54;7.90;;;5.50;;
20468;SDS011;10393;52.460;13.322;2023-06-22T05:20:36;6.82;;;4.93;;
20468;SDS011;10393;52.460;13.322;2023-06-22T05:22:17;5.65;;;5.07;;
20468;SDS011;10393;52.460;13.322;2023-06-22T05:23:58;6.65;;;5.72;;
20468;SDS011;10393;52.460;13.322;2023-06-22T05:25:43;7.55;;;4.78;;
20468;SDS011;10393;52.460;13.322;2023-06-22T05:27:24;6.38;;;5.35;;
20468;SDS011;10393;52.460;13.322;2023-06-22T05:29:05;5.88;;;5.18;;
20468;SDS011;10393;52.460;13.322;2023-06-22T05:30:46;5.82;;;5.30;;
20468;SDS011;10393;52.460;13.322;2023-06-22T05:32:27;8.68;;;5.70;;
20468;SDS011;10393;52.460;13.322;2023-06-22T05:34:09;7.47;;;5.00;;
20468;SDS011;10393;52.460;13.322;2023-06-22T05:35:50;5.68;;;4.78;;
20468;SDS011;10393;52.460;13.322;2023-06-22T05:37:31;7.82;;;4.70;;
20468;SDS011;10393;52.460;13.322;2023-06-22T05:39:12;6.53;;;4.60;;
20468;SDS011;10393;52.460;13.322;2023-06-22T05:40:54;5.45;;;4.72;;
20468;SDS011;10393;52.460;13.322;2023-06-22T05:42:35;6.40;;;4.80;;
20468;SDS011;10393;52.460;13.322;2023-06-22T05:44:17;5.70;;;4.38;;
20468;SDS011;10393;52.460;13.322;2023-06-22T05:45:59;8.18;;;4.93;;
20468;SDS011;10393;52.460;13.322;2023-06-22T05:47:40;5.15;;;4.28;;
20468;SDS011;10393;52.460;13.322;2023-06-22T05:49:21;4.20;;;3.90;;
20468;SDS011;10393;52.460;13.322;2023-06-22T05:51:04;6.80;;;4.00;;
20468;SDS011;10393;52.460;13.322;2023-06-22T05:52:45;5.53;;;4.50;;
20468;SDS011;10393;52.460;13.322;2023-06-22T05:54:29;4.07;;;3.65;;
20468;SDS011;10393;52.460;13.322;2023-06-22T05:56:11;5.43;;;4.30;;
20468;SDS011;10393;52.460;13.322;2023-06-22T05:57:52;3.95;;;3.30;;
20468;SDS011;10393;52.460;13.322;2023-06-22T05:59:33;9.48;;;5.00;;
20468;SDS011;10393;52.460;13.322;2023-06-22T06:01:14;8.52;;;4.93;;
20468;SDS011;10393;52.460;13.322;2023-06-22T06:02:55;8.15;;;3.75;;
20468;SDS011;10393;52.460;13.322;2023-06-22T06:04:37;5.07;;;4.47;;
20468;SDS011;10393;52.460;13.322;2023-06-22T06:06:18;4.85;;;4.43;;
20468;SDS011;10393;52.460;13.322;2023-06-22T06:08:08;9.30;;;5.05;;
20468;SDS011;10393;52.460;13.322;2023-06-22T06:09:51;6.97;;;3.75;;
20468;SDS011;10393;52.460;13.322;2023-06-22T06:11:32;8.63;;;4.03;;
20468;SDS011;10393;52.460;13.322;2023-06-22T06:13:13;5.13;;;3.88;;
20468;SDS011;10393;52.460;13.322;2023-06-22T06:14:54;6.95;;;4.43;;
20468;SDS011;10393;52.460;13.322;2023-06-22T06:16:36;4.80;;;4.30;;
20468;SDS011;10393;52.460;13.322;2023-06-22T06:18:17;5.53;;;4.05;;
20468;SDS011;10393;52.460;13.322;2023-06-22T06:19:59;3.65;;;3.35;;
20468;SDS011;10393;52.460;13.322;2023-06-22T06:21:40;9.20;;;4.25;;
20468;SDS011;10393;52.460;13.322;2023-06-22T06:23:21;9.15;;;4.45;;
20468;SDS011;10393;52.460;13.322;2023-06-22T06:25:03;4.05;;;3.75;;
20468;SDS011;10393;52.460;13.322;2023-06-22T06:26:44;5.30;;;4.18;;
20468;SDS011;10393;52.460;13.322;2023-06-22T06:28:26;4.85;;;4.00;;
20468;SDS011;10393;52.460;13.322;2023-06-22T06:30:07;4.40;;;4.00;;
20468;SDS011;10393;52.460;13.322;2023-06-22T06:31:49;4.47;;;4.07;;
20468;SDS011;10393;52.460;13.322;2023-06-22T06:33:30;4.32;;;3.90;;
20468;SDS011;10393;52.460;13.322;2023-06-22T06:35:12;3.20;;;3.00;;
20468;SDS011;10393;52.460;13.322;2023-06-22T06:36:53;3.92;;;3.15;;
20468;SDS011;10393;52.460;13.322;2023-06-22T06:38:34;3.50;;;3.08;;
20468;SDS011;10393;52.460;13.322;2023-06-22T06:40:17;2.95;;;2.13;;
20468;SDS011;10393;52.460;13.322;2023-06-22T06:41:58;4.43;;;3.03;;
20468;SDS011;10393;52.460;13.322;2023-06-22T06:43:39;3.22;;;2.85;;
20468;SDS011;10393;52.460;13.322;2023-06-22T06:45:23;2.70;;;2.55;;
20468;SDS011;10393;52.460;13.322;2023-06-22T06:47:05;3.40;;;2.47;;
20468;SDS011;10393;52.460;13.322;2023-06-22T06:48:46;3.70;;;2.78;;
20468;SDS011;10393;52.460;13.322;2023-06-22T06:50:27;3.78;;;2.88;;
20468;SDS011;10393;52.460;13.322;2023-06-22T06:52:09;6.03;;;2.88;;
20468;SDS011;10393;52.460;13.322;2023-06-22T06:53:50;3.75;;;2.50;;
20468;SDS011;10393;52.460;13.322;2023-06-22T06:55:31;2.72;;;2.53;;
20468;SDS011;10393;52.460;13.322;2023-06-22T06:57:15;4.90;;;3.30;;
20468;SDS011;10393;52.460;13.322;2023-06-22T06:58:56;3.95;;;2.70;;
20468;SDS011;10393;52.460;13.322;2023-06-22T07:00:39;2.97;;;2.70;;
20468;SDS011;10393;52.460;13.322;2023-06-22T07:02:20;4.28;;;2.50;;
20468;SDS011;10393;52.460;13.322;2023-06-22T07:04:02;4.75;;;2.38;;
20468;SDS011;10393;52.460;13.322;2023-06-22T07:05:43;2.42;;;2.28;;
20468;SDS011;10393;52.460;13.322;2023-06-22T07:07:24;5.38;;;2.63;;
20468;SDS011;10393;52.460;13.322;2023-06-22T07:09:05;4.05;;;2.80;;
20468;SDS011;10393;52.460;13.322;2023-06-22T07:10:46;2.72;;;2.45;;
20468;SDS011;10393;52.460;13.322;2023-06-22T07:12:27;3.03;;;2.38;;
20468;SDS011;10393;52.460;13.322;2023-06-22T07:14:09;3.40;;;2.20;;
20468;SDS011;10393;52.460;13.322;2023-06-22T07:15:50;3.05;;;2.65;;
20468;SDS011;10393;52.460;13.322;2023-06-22T07:17:31;1.67;;;1.58;;
20468;SDS011;10393;52.460;13.322;2023-06-22T07:19:12;16.67;;;2.33;;
20468;SDS011;10393;52.460;13.322;2023-06-22T07:20:53;2.03;;;1.92;;
20468;SDS011;10393;52.460;13.322;2023-06-22T07:22:35;2.38;;;1.55;;
20468;SDS011;10393;52.460;13.322;2023-06-22T07:24:16;1.95;;;1.85;;
20468;SDS011;10393;52.460;13.322;2023-06-22T07:25:59;2.10;;;1.70;;
20468;SDS011;10393;52.460;13.322;2023-06-22T07:27:56;2.45;;;2.25;;
20468;SDS011;10393;52.460;13.322;2023-06-22T07:29:37;2.85;;;1.77;;
20468;SDS011;10393;52.460;13.322;2023-06-22T07:31:20;2.42;;;2.30;;
20468;SDS011;10393;52.460;13.322;2023-06-22T07:33:01;4.03;;;2.25;;
20468;SDS011;10393;52.460;13.322;2023-06-22T07:34:48;2.08;;;1.98;;
20468;SDS011;10393;52.460;13.322;2023-06-22T07:36:29;2.88;;;2.10;;
20468;SDS011;10393;52.460;13.322;2023-06-22T07:38:11;2.47;;;2.28;;
20468;SDS011;10393;52.460;13.322;2023-06-22T07:39:52;3.35;;;2.08;;
20468;SDS011;10393;52.460;13.322;2023-06-22T07:41:41;2.60;;;2.50;;
20468;SDS011;10393;52.460;13.322;2023-06-22T07:43:22;2.20;;;2.10;;
20468;SDS011;10393;52.460;13.322;2023-06-22T07:45:03;2.63;;;2.42;;
20468;SDS011;10393;52.460;13.322;2023-06-22T07:46:45;2.38;;;2.17;;
20468;SDS011;10393;52.460;13.322;2023-06-22T07:48:27;3.28;;;2.22;;
20468;SDS011;10393;52.460;13.322;2023-06-22T07:50:08;2.20;;;2.00;;
20468;SDS011;10393;52.460;13.322;2023-06-22T07:51:50;3.13;;;2.40;;
20468;SDS011;10393;52.460;13.322;2023-06-22T07:53:31;2.55;;;2.35;;
20468;SDS011;10393;52.460;13.322;2023-06-22T07:55:12;2.30;;;2.10;;
20468;SDS011;10393;52.460;13.322;2023-06-22T07:56:53;2.45;;;2.25;;
20468;SDS011;10393;52.460;13.322;2023-06-22T07:58:34;2.40;;;2.20;;
20468;SDS011;10393;52.460;13.322;2023-06-22T08:00:15;2.70;;;1.77;;
20468;SDS011;10393;52.460;13.322;2023-06-22T08:01:57;3.58;;;2.05;;
20468;SDS011;10393;52.460;13.322;2023-06-22T08:03:38;2.17;;;1.50;;
20468;SDS011;10393;52.460;13.322;2023-06-22T08:05:20;3.65;;;2.05;;
20468;SDS011;10393;52.460;13.322;2023-06-22T08:07:01;2.80;;;2.50;;
20468;SDS011;10393;52.460;13.322;2023-06-22T08:08:43;4.90;;;2.45;;
20468;SDS011;10393;52.460;13.322;2023-06-22T08:10:28;2.40;;;2.20;;
20468;SDS011;10393;52.460;13.322;2023-06-22T08:12:09;2.63;;;2.00;;
20468;SDS011;10393;52.460;13.322;2023-06-22T08:13:51;1.90;;;1.75;;
20468;SDS011;10393;52.460;13.322;2023-06-22T08:15:32;3.00;;;2.03;;
20468;SDS011;10393;52.460;13.322;2023-06-22T08:17:13;10.23;;;2.10;;
20468;SDS011;10393;52.460;13.322;2023-06-22T08:18:55;1.27;;;1.17;;
20468;SDS011;10393;52.460;13.322;2023-06-22T08:20:36;2.75;;;1.83;;
20468;SDS011;10393;52.460;13.322;2023-06-22T08:22:17;2.45;;;1.60;;
20468;SDS011;10393;52.460;13.322;2023-06-22T08:23:59;1.58;;;1.40;;
20468;SDS011;10393;52.460;13.322;2023-06-22T08:25:40;3.83;;;1.40;;
20468;SDS011;10393;52.460;13.322;2023-06-22T08:27:21;2.70;;;1.50;;
20468;SDS011;10393;52.460;13.322;2023-06-22T08:29:03;3.50;;;1.92;;
20468;SDS011;10393;52.460;13.322;2023-06-22T08:30:44;3.60;;;1.70;;
20468;SDS011;10393;52.460;13.322;2023-06-22T08:32:29;4.28;;;1.45;;
20468;SDS011;10393;52.460;13.322;2023-06-22T08:34:10;2.53;;;1.48;;
20468;SDS011;10393;52.460;13.322;2023-06-22T08:35:52;2.17;;;1.55;;
20468;SDS011;10393;52.460;13.322;2023-06-22T08:37:33;1.30;;;1.20;;
20468;SDS011;10393;52.460;13.322;2023-06-22T08:39:15;1.48;;;1.38;;
20468;SDS011;10393;52.460;13.322;2023-06-22T08:40:56;2.30;;;0.98;;
20468;SDS011;10393;52.460;13.322;2023-06-22T08:42:39;1.48;;;1.38;;
20468;SDS011;10393;52.460;13.322;2023-06-22T08:44:20;2.63;;;1.65;;
20468;SDS011;10393;52.460;13.322;2023-06-22T08:46:01;1.92;;;1.67;;
20468;SDS011;10393;52.460;13.322;2023-06-22T08:47:43;1.60;;;1.50;;
20468;SDS011;10393;52.460;13.322;2023-06-22T08:49:24;3.45;;;1.35;;
20468;SDS011;10393;52.460;13.322;2023-06-22T08:51:06;1.65;;;1.35;;
20468;SDS011;10393;52.460;13.322;2023-06-22T08:52:47;1.60;;;1.23;;
20468;SDS011;10393;52.460;13.322;2023-06-22T08:54:28;1.30;;;1.20;;
20468;SDS011;10393;52.460;13.322;2023-06-22T08:56:14;1.35;;;1.25;;
20468;SDS011;10393;52.460;13.322;2023-06-22T08:57:55;1.65;;;1.27;;
20468;SDS011;10393;52.460;13.322;2023-06-22T08:59:36;2.65;;;1.30;;
20468;SDS011;10393;52.460;13.322;2023-06-22T09:01:18;2.78;;;1.58;;
20468;SDS011;10393;52.460;13.322;2023-06-22T09:02:59;1.65;;;1.55;;
20468;SDS011;10393;52.460;13.322;2023-06-22T09:04:40;1.63;;;1.50;;
20468;SDS011;10393;52.460;13.322;2023-06-22T09:06:21;1.98;;;1.88;;
20468;SDS011;10393;52.460;13.322;2023-06-22T09:08:02;6.28;;;1.60;;
20468;SDS011;10393;52.460;13.322;2023-06-22T09:09:44;1.50;;;1.40;;
20468;SDS011;10393;52.460;13.322;2023-06-22T09:11:25;1.90;;;1.80;;
20468;SDS011;10393;52.460;13.322;2023-06-22T09:15:28;1.55;;;1.30;;
20468;SDS011;10393;52.460;13.322;2023-06-22T09:17:10;1.42;;;1.15;;
20468;SDS011;10393;52.460;13.322;2023-06-22T09:18:51;1.50;;;1.40;;
20468;SDS011;10393;52.460;13.322;2023-06-22T09:20:32;1.98;;;1.48;;
20468;SDS011;10393;52.460;13.322;2023-06-22T09:22:14;1.42;;;1.33;;
20468;SDS011;10393;52.460;13.322;2023-06-22T09:23:55;3.05;;;1.65;;
20468;SDS011;10393;52.460;13.322;2023-06-22T09:25:36;1.77;;;1.50;;
20468;SDS011;10393;52.460;13.322;2023-06-22T09:27:18;3.70;;;1.48;;
20468;SDS011;10393;52.460;13.322;2023-06-22T09:28:59;2.90;;;1.80;;
20468;SDS011;10393;52.460;13.322;2023-06-22T09:30:42;1.75;;;1.65;;
20468;SDS011;10393;52.460;13.322;2023-06-22T09:32:24;1.60;;;1.42;;
20468;SDS011;10393;52.460;13.322;2023-06-22T09:34:06;5.13;;;1.52;;
20468;SDS011;10393;52.460;13.322;2023-06-22T09:35:47;2.10;;;1.60;;
20468;SDS011;10393;52.460;13.322;2023-06-22T09:37:29;2.85;;;1.98;;
20468;SDS011;10393;52.460;13.322;2023-06-22T09:39:10;2.10;;;2.00;;
20468;SDS011;10393;52.460;13.322;2023-06-22T09:40:51;1.98;;;1.88;;
20468;SDS011;10393;52.460;13.322;2023-06-22T09:42:33;3.15;;;1.73;;
20468;SDS011;10393;52.460;13.322;2023-06-22T09:44:14;3.90;;;2.28;;
20468;SDS011;10393;52.460;13.322;2023-06-22T09:45:55;8.63;;;1.83;;
20468;SDS011;10393;52.460;13.322;2023-06-22T09:47:37;3.15;;;1.65;;
20468;SDS011;10393;52.460;13.322;2023-06-22T09:49:20;3.03;;;2.33;;
20468;SDS011;10393;52.460;13.322;2023-06-22T09:51:18;4.18;;;2.00;;
20468;SDS011;10393;52.460;13.322;2023-06-22T09:53:01;2.10;;;1.85;;
20468;SDS011;10393;52.460;13.322;2023-06-22T09:54:55;2.00;;;1.85;;
20468;SDS011;10393;52.460;13.322;2023-06-22T09:56:39;2.38;;;2.20;;
20468;SDS011;10393;52.460;13.322;2023-06-22T09:58:24;2.47;;;2.28;;
20468;SDS011;10393;52.460;13.322;2023-06-22T10:00:06;2.75;;;2.38;;
20468;SDS011;10393;52.460;13.322;2023-06-22T10:01:49;7.38;;;2.30;;
20468;SDS011;10393;52.460;13.322;2023-06-22T10:03:30;2.72;;;2.15;;
20468;SDS011;10393;52.460;13.322;2023-06-22T10:05:11;2.40;;;2.17;;
20468;SDS011;10393;52.460;13.322;2023-06-22T10:06:54;3.40;;;1.95;;
20468;SDS011;10393;52.460;13.322;2023-06-22T10:08:35;3.63;;;2.60;;
20468;SDS011;10393;52.460;13.322;2023-06-22T10:10:16;4.30;;;2.08;;
20468;SDS011;10393;52.460;13.322;2023-06-22T10:11:58;1.90;;;1.80;;
20468;SDS011;10393;52.460;13.322;2023-06-22T10:13:39;2.55;;;2.35;;